Weather reports worldwide

Advertisment
Monte Terminillo, Italy (16219): temperature & dewpoint: 20.03.2019 20:00:00 - 26.03.2019 20:00:00 (CET)Monte Terminillo, Italy (16219): wind speed & gusts: 20.03.2019 20:00:00 - 26.03.2019 20:00:00 (CET)Monte Terminillo, Italy (16219): wind direction: 20.03.2019 20:00:00 - 26.03.2019 20:00:00 (CET)Monte Terminillo, Italy (16219): sunshine duration: 20.03.2019 20:00:00 - 26.03.2019 20:00:00 (CET)
Date & Time tt [°C] td [°C] ff [km/h] ff [kn] fx [km/h] fx [kn] dd sd [min]
26.03.2019 20:00:00 -4,7 -6,2 44 24 - - E 0
26.03.2019 19:00:00 -4,3 -6,4 52 28 - - E 0
26.03.2019 18:00:00 -4,1 -6,4 42 23 - - E 12
26.03.2019 17:00:00 -3,9 -5,5 50 27 - - E 54
26.03.2019 16:00:00 -4,2 -4,9 50 27 - - E 36
26.03.2019 15:00:00 -4,0 -4,3 48 26 - - E 0
26.03.2019 14:00:00 -3,7 -4,1 46 25 - - E 24
26.03.2019 13:00:00 -3,6 -3,9 46 25 - - E 42
26.03.2019 12:00:00 -3,6 -4,0 44 24 - - E 24
26.03.2019 11:00:00 -3,7 -4,1 48 26 - - E 12
26.03.2019 10:00:00 -3,7 -4,0 50 27 - - E 0
26.03.2019 09:00:00 -3,5 -3,8 48 26 - - E 0
26.03.2019 08:00:00 -3,2 -3,4 46 25 - - E 0
26.03.2019 07:00:00 -2,2 -2,2 46 25 - - E 0
26.03.2019 06:00:00 -1,5 -1,6 44 24 - - E 0
26.03.2019 05:00:00 -0,8 -6,6 31 17 - - E 0
26.03.2019 04:00:00 0,9 -5,0 29 16 - - E 0
26.03.2019 03:00:00 0,8 -5,3 5 3 - - SE 0
26.03.2019 02:00:00 0,9 -5,1 4 2 - - N 0
26.03.2019 01:00:00 0,6 -5,6 11 6 - - WNW 0
26.03.2019 00:00:00 0,6 -5,8 16 9 - - W 0
25.03.2019 23:00:00 0,1 -9,3 22 12 - - WNW 0
25.03.2019 22:00:00 0,7 -9,5 8 4 - - N 0
25.03.2019 21:00:00 0,8 -11,2 9 5 - - N 0
25.03.2019 20:00:00 0,9 -8,7 21 11 - - WNW 0
25.03.2019 19:00:00 3,0 -2,2 9 5 - - N 18
25.03.2019 18:00:00 4,1 -2,4 8 4 - - N 60
25.03.2019 17:00:00 5,0 -2,0 13 7 - - N 60
25.03.2019 16:00:00 6,7 -5,9 11 6 - - N 60
25.03.2019 15:00:00 7,3 -5,3 15 8 - - N 60
25.03.2019 14:00:00 8,8 -3,0 16 9 - - N 60
25.03.2019 13:00:00 8,5 -3,7 11 6 - - WNW 60
25.03.2019 12:00:00 9,2 -4,3 4 2 32 18 N 60
25.03.2019 11:00:00 9,4 -6,0 16 9 - - WNW 60
25.03.2019 10:00:00 9,3 -8,1 21 11 - - WNW 60
25.03.2019 09:00:00 7,4 -7,9 22 12 - - NW 60
25.03.2019 08:00:00 5,9 -7,3 29 16 - - NW 60
25.03.2019 07:00:00 3,5 -8,4 24 13 - - NW 18
25.03.2019 06:00:00 3,4 -4,4 29 16 - - NW 0
25.03.2019 05:00:00 3,8 -6,0 29 16 - - NW 0
25.03.2019 04:00:00 4,2 -7,4 21 11 - - NW 0
25.03.2019 03:00:00 4,5 -6,7 22 12 - - NW 0
25.03.2019 02:00:00 4,4 -6,3 21 11 - - NW 0
25.03.2019 01:00:00 4,1 -3,3 18 10 - - NW 0
25.03.2019 00:00:00 4,8 -1,3 18 10 - - NW 0
24.03.2019 23:00:00 5,3 -1,9 16 9 - - NNW 0
24.03.2019 22:00:00 5,6 -2,7 16 9 - - NW 0
24.03.2019 21:00:00 5,4 -0,3 15 8 - - NW 0
24.03.2019 20:00:00 5,9 -0,2 18 10 - - NW 0
24.03.2019 19:00:00 7,2 -1,0 21 11 - - NW 18
24.03.2019 18:00:00 8,0 -1,8 21 11 - - NW 60
24.03.2019 17:00:00 9,1 -2,5 22 12 - - WNW 60
24.03.2019 16:00:00 9,5 -3,9 15 8 - - WNW 60
24.03.2019 15:00:00 10,5 -4,2 11 6 - - N 60
24.03.2019 14:00:00 11,6 -4,7 13 7 - - N 60
24.03.2019 13:00:00 11,4 -5,6 5 3 - - N 60
24.03.2019 12:00:00 11,5 -6,1 5 3 - - N 60
24.03.2019 11:00:00 13,1 -8,4 4 2 - - N 60
24.03.2019 10:00:00 13,8 -11,5 4 2 - - - 60
24.03.2019 09:00:00 14,0 -11,7 5 3 - - WNW 60
24.03.2019 08:00:00 9,3 -11,1 4 2 - - N 60
24.03.2019 07:00:00 5,5 -12,1 9 5 - - NNW 18
24.03.2019 06:00:00 5,9 -12,8 9 5 - - NW 0
24.03.2019 05:00:00 7,0 -12,9 8 4 - - NW 0
24.03.2019 04:00:00 6,4 -15,4 2 1 - - N 0
24.03.2019 03:00:00 5,6 -11,4 13 7 - - E 0
24.03.2019 02:00:00 6,1 -14,6 21 11 - - E 0
24.03.2019 01:00:00 5,7 -11,7 21 11 - - E 0
24.03.2019 00:00:00 6,6 -10,0 21 11 - - E 0
23.03.2019 23:00:00 6,5 -8,4 18 10 - - ESE 0
23.03.2019 22:00:00 5,8 -5,2 13 7 - - ESE 0
23.03.2019 21:00:00 6,1 -3,8 8 4 - - E 0
23.03.2019 20:00:00 6,3 -3,9 4 2 - - ESE 0
23.03.2019 19:00:00 6,9 -4,9 13 7 - - E 18
23.03.2019 18:00:00 7,8 -5,4 9 5 - - E 60
23.03.2019 17:00:00 8,2 -6,3 11 6 - - E 60
23.03.2019 16:00:00 8,4 -6,9 16 9 - - ESE 60
23.03.2019 15:00:00 8,3 -7,6 13 7 - - SE 60
23.03.2019 14:00:00 8,7 -6,4 15 8 - - E 60
23.03.2019 13:00:00 8,8 -6,6 13 7 - - SSE 60
23.03.2019 12:00:00 8,2 -9,7 13 7 - - SE 60
23.03.2019 11:00:00 6,3 -9,5 11 6 - - SE 60
23.03.2019 10:00:00 5,5 -10,7 22 12 - - E 60
23.03.2019 09:00:00 5,9 -12,0 24 13 - - ESE 60
23.03.2019 08:00:00 3,9 -15,8 21 11 - - ESE 36
23.03.2019 07:00:00 4,7 -19,5 24 13 - - E 18
23.03.2019 06:00:00 5,2 -24,4 15 8 - - ESE 0
23.03.2019 05:00:00 5,0 -22,2 22 12 - - ESE 0
23.03.2019 04:00:00 3,6 -17,5 28 15 - - E 0
23.03.2019 03:00:00 4,4 -14,8 34 18 - - E 0
23.03.2019 02:00:00 3,9 -11,4 26 14 - - ESE 0
23.03.2019 01:00:00 2,9 -7,4 28 15 - - ESE 0
23.03.2019 00:00:00 4,1 -13,0 29 16 - - E 0
22.03.2019 23:00:00 4,7 -16,7 29 16 - - E 0
22.03.2019 22:00:00 3,5 -9,2 24 13 - - E 0
22.03.2019 21:00:00 3,9 -2,4 29 16 - - E 0
22.03.2019 20:00:00 4,4 -2,8 21 11 - - E 0
22.03.2019 19:00:00 5,0 -2,2 15 8 - - ESE 18
22.03.2019 18:00:00 6,0 -2,6 28 15 - - E 60
22.03.2019 17:00:00 6,2 -4,5 15 8 - - N 60
22.03.2019 16:00:00 6,5 -5,1 13 7 - - E 60
22.03.2019 15:00:00 6,5 -3,2 13 7 - - N 60
22.03.2019 14:00:00 6,0 -2,8 18 10 - - N 60
22.03.2019 13:00:00 5,3 -2,5 24 13 - - SE 60
22.03.2019 12:00:00 4,5 -2,6 26 14 - - SE 60
22.03.2019 11:00:00 3,8 -3,0 22 12 - - ESE 60
22.03.2019 10:00:00 3,3 -3,3 22 12 - - E 60
22.03.2019 09:00:00 3,5 -3,3 28 15 - - E 60
22.03.2019 08:00:00 2,9 -3,7 31 17 - - E 60
22.03.2019 07:00:00 2,4 -3,8 31 17 - - E 12
22.03.2019 06:00:00 2,7 -4,4 34 18 - - E 0
22.03.2019 05:00:00 3,3 -4,9 31 17 - - E 0
22.03.2019 04:00:00 2,5 -3,5 35 19 - - E 0
22.03.2019 03:00:00 2,6 -3,2 34 18 - - E 0
22.03.2019 02:00:00 3,2 -3,2 41 22 - - ESE 0
22.03.2019 01:00:00 2,6 -2,4 31 17 - - E 0
22.03.2019 00:00:00 3,0 -2,4 31 17 - - E 0
21.03.2019 23:00:00 3,0 -1,8 37 20 - - E 0
21.03.2019 22:00:00 4,1 -3,4 31 17 - - E 0
21.03.2019 21:00:00 3,6 -1,9 29 16 - - ESE 0
21.03.2019 20:00:00 3,0 -1,7 37 20 - - ESE 0
21.03.2019 19:00:00 4,1 -2,7 31 17 - - ESE 12
21.03.2019 18:00:00 4,2 -2,7 35 19 - - ESE 60
21.03.2019 17:00:00 4,3 -2,3 29 16 - - N 60
21.03.2019 16:00:00 4,7 -2,9 22 12 - - N 60
21.03.2019 15:00:00 4,7 -3,1 26 14 - - E 60
21.03.2019 14:00:00 3,1 -3,7 34 18 - - E 60
21.03.2019 13:00:00 3,2 -3,7 28 15 - - N 60
21.03.2019 12:00:00 2,5 -4,3 29 16 - - E 54
21.03.2019 11:00:00 2,7 -3,8 31 17 - - ESE 60
21.03.2019 10:00:00 2,1 -4,6 39 21 - - ESE 60
21.03.2019 09:00:00 1,7 -4,5 42 23 - - ESE 60
21.03.2019 08:00:00 0,6 -4,5 39 21 - - ESE 60
21.03.2019 07:00:00 -0,4 -4,3 37 20 - - ESE 12
21.03.2019 06:00:00 -0,4 -4,0 39 21 - - ESE 0
21.03.2019 05:00:00 -0,5 -4,0 42 23 - - ESE 0
21.03.2019 04:00:00 0,6 -3,1 39 21 - - ESE 0
21.03.2019 03:00:00 -1,1 -3,7 34 18 - - ESE 0
21.03.2019 02:00:00 -0,8 -3,2 34 18 - - ESE 0
21.03.2019 01:00:00 -2,0 -3,3 31 17 - - ESE 0
21.03.2019 00:00:00 -1,9 -2,8 35 19 - - ESE 0
20.03.2019 23:00:00 -2,1 -2,6 39 21 - - E 0
20.03.2019 22:00:00 -2,3 -2,5 37 20 - - ESE 0
20.03.2019 21:00:00 -2,3 -2,6 39 21 - - ESE 0
20.03.2019 20:00:00 -2,5 -2,8 39 21 - - ESE 0

tt = temperature
td = dewpoint
ff = wind speed
fx = gusts
dd = wind direction
sd = sunshine duration

Next stations